Terminal Aerodrome Forecast
Issued by NWS Jackson, MS

Current Version | Previous Version | Text Only | Print | Product List | Glossary On
Versions: 1 2 3 4 5 6 7 8 9 10 11 12 13 14 15
000
FTUS44 KMEG 282339
TAFTUP
TAF
KTUP 282339Z 0100/0124 10007KT P6SM BKN100
     FM010500 12005KT P6SM BKN015
     FM011000 14004KT 6SM BR VCSH OVC009
      TEMPO 0110/0114 4SM -DZ BR
     FM011600 17007KT P6SM VCSH OVC009
     FM011900 20005KT 4SM -SHRA OVC007=

USA.gov is the U.S. government's official web portal to all federal, state and local government web resources and services.